createdAt,value
2022-09-01T00:01:49.659Z,3.60
2022-09-01T00:04:20.787Z,4.00
2022-09-01T00:06:48.437Z,3.73
2022-09-01T00:09:18.161Z,3.63
2022-09-01T00:11:50.602Z,3.30
2022-09-01T00:14:29.634Z,3.83
2022-09-01T00:17:01.167Z,3.53
2022-09-01T00:19:29.485Z,4.23
2022-09-01T00:21:56.467Z,3.27
2022-09-01T00:24:22.991Z,3.50
2022-09-01T00:26:49.397Z,3.90
2022-09-01T00:29:16.150Z,3.87
2022-09-01T00:31:42.776Z,3.80
2022-09-01T00:34:09.414Z,3.97
2022-09-01T00:36:35.869Z,3.30
2022-09-01T00:39:03.528Z,3.70
2022-09-01T00:41:32.782Z,4.20
2022-09-01T00:44:05.334Z,3.57
2022-09-01T00:46:36.504Z,3.43
2022-09-01T00:49:16.025Z,3.80
2022-09-01T00:51:47.815Z,3.60
2022-09-01T00:54:20.020Z,3.67
2022-09-01T00:56:57.317Z,3.60
2022-09-01T00:59:26.386Z,3.50
2022-09-01T01:01:53.376Z,3.40
2022-09-01T01:04:20.136Z,3.57
2022-09-01T01:06:58.630Z,4.00
2022-09-01T01:09:26.782Z,3.37
2022-09-01T01:11:53.533Z,3.73
2022-09-01T01:14:20.099Z,3.37
2022-09-01T01:16:50.678Z,3.50
2022-09-01T01:19:44.093Z,3.40
2022-09-01T01:22:36.636Z,3.53
2022-09-01T01:25:03.477Z,3.80
2022-09-01T01:27:34.806Z,3.53
2022-09-01T01:30:12.483Z,3.90
2022-09-01T01:32:43.099Z,3.20
2022-09-01T01:35:14.748Z,3.70
2022-09-01T01:37:48.747Z,3.33
2022-09-01T01:40:17.983Z,3.30
2022-09-01T01:42:50.801Z,3.50
2022-09-01T01:45:19.952Z,3.00
2022-09-01T01:47:53.047Z,3.20
2022-09-01T01:50:25.728Z,3.23
2022-09-01T01:52:58.128Z,3.30
2022-09-01T01:55:28.598Z,3.60
2022-09-01T01:57:56.207Z,3.40
2022-09-01T02:00:30.443Z,3.43
2022-09-01T02:02:57.991Z,3.00
2022-09-01T02:05:32.063Z,3.00
2022-09-01T02:08:03.933Z,3.47
2022-09-01T02:10:38.909Z,3.17
2022-09-01T02:13:07.546Z,3.13
2022-09-01T02:15:44.079Z,3.10
2022-09-01T02:18:14.154Z,3.00
2022-09-01T02:20:41.864Z,3.33
2022-09-01T02:23:11.502Z,3.60
2022-09-01T02:25:59.068Z,3.00
2022-09-01T02:28:27.658Z,2.90
2022-09-01T02:30:57.867Z,3.10
2022-09-01T02:33:25.283Z,3.50
2022-09-01T02:35:55.104Z,3.60
2022-09-01T02:38:23.884Z,3.60
2022-09-01T02:40:50.324Z,2.70
2022-09-01T02:43:20.265Z,3.33
2022-09-01T02:45:55.551Z,3.03
2022-09-01T02:48:32.857Z,3.10
2022-09-01T02:51:02.010Z,2.67
2022-09-01T02:53:34.164Z,3.37
2022-09-01T02:56:09.319Z,3.23
2022-09-01T02:58:45.625Z,3.17
2022-09-01T03:01:24.828Z,2.80
2022-09-01T03:03:55.617Z,2.93
2022-09-01T03:06:24.171Z,2.80
2022-09-01T03:08:53.039Z,3.27
2022-09-01T03:11:19.912Z,3.00
2022-09-01T03:13:46.705Z,3.00
2022-09-01T03:16:13.343Z,2.83
2022-09-01T03:18:40.242Z,3.40
2022-09-01T03:21:08.316Z,2.90
2022-09-01T03:23:38.003Z,2.90
2022-09-01T03:26:04.708Z,3.50
2022-09-01T03:28:31.878Z,3.00
2022-09-01T03:30:59.069Z,3.13
2022-09-01T03:33:27.619Z,3.43
2022-09-01T03:35:54.975Z,3.30
2022-09-01T03:38:24.057Z,3.50
2022-09-01T03:40:52.978Z,3.20
2022-09-01T03:43:23.404Z,3.00
2022-09-01T03:45:49.858Z,3.40
2022-09-01T03:48:17.053Z,3.20
2022-09-01T03:50:46.276Z,3.20
2022-09-01T03:53:19.989Z,3.50
2022-09-01T03:55:47.949Z,3.20
2022-09-01T03:58:18.930Z,3.07
2022-09-01T04:00:55.319Z,2.80
2022-09-01T04:03:28.937Z,3.07
2022-09-01T04:05:56.420Z,2.93
2022-09-01T04:08:32.412Z,3.53
2022-09-01T04:11:03.690Z,2.67
2022-09-01T04:13:35.397Z,2.90
2022-09-01T04:16:02.202Z,2.50
2022-09-01T04:18:30.148Z,2.83
2022-09-01T04:20:59.339Z,3.20
2022-09-01T04:23:33.506Z,2.93
2022-09-01T04:26:08.757Z,3.30
2022-09-01T04:28:39.088Z,2.90
2022-09-01T04:31:09.204Z,2.60
2022-09-01T04:33:39.794Z,3.00
2022-09-01T04:36:15.080Z,3.37
2022-09-01T04:38:41.427Z,3.40
2022-09-01T04:41:09.390Z,2.83
2022-09-01T04:43:36.117Z,3.30
2022-09-01T04:46:03.300Z,3.20
2022-09-01T04:48:31.656Z,3.00
2022-09-01T04:50:58.652Z,3.07
2022-09-01T04:53:25.012Z,2.57
2022-09-01T04:55:55.137Z,3.00
2022-09-01T04:58:22.124Z,3.23
2022-09-01T05:00:52.149Z,3.40
2022-09-01T05:03:21.442Z,3.10
2022-09-01T05:05:47.795Z,3.40
2022-09-01T05:08:23.499Z,2.90
2022-09-01T05:10:55.381Z,2.80
2022-09-01T05:13:23.509Z,3.00
2022-09-01T05:16:05.970Z,3.13
2022-09-01T05:18:32.824Z,3.03
2022-09-01T05:21:09.710Z,2.67
2022-09-01T05:23:37.382Z,2.63
2022-09-01T05:26:06.239Z,3.27
2022-09-01T05:28:32.772Z,3.47
2022-09-01T05:31:00.971Z,2.87
2022-09-01T05:33:27.585Z,2.80
2022-09-01T05:35:56.939Z,2.93
2022-09-01T05:38:25.656Z,2.67
2022-09-01T05:41:03.670Z,3.07
2022-09-01T05:43:31.501Z,2.87
2022-09-01T05:46:06.579Z,2.90
2022-09-01T05:48:39.549Z,2.60
2022-09-01T05:51:22.432Z,2.87
2022-09-01T05:53:59.205Z,2.73
2022-09-01T05:56:31.004Z,3.30
2022-09-01T06:01:50.463Z,2.73
2022-09-01T06:04:18.031Z,2.90
2022-09-01T06:07:05.298Z,2.63
2022-09-01T06:09:36.671Z,3.53
2022-09-01T06:12:03.326Z,2.40
2022-09-01T06:14:29.672Z,2.97
2022-09-01T06:16:56.286Z,2.70
2022-09-01T06:19:22.787Z,3.00
2022-09-01T06:21:49.158Z,2.60
2022-09-01T06:24:15.544Z,3.43
2022-09-01T06:26:42.166Z,2.43
2022-09-01T06:29:15.181Z,2.30
2022-09-01T06:31:42.494Z,2.80
2022-09-01T06:34:13.848Z,2.43
2022-09-01T06:36:40.638Z,2.37
2022-09-01T06:39:08.361Z,2.57
2022-09-01T06:41:37.779Z,2.70
2022-09-01T06:44:04.209Z,2.33
2022-09-01T06:46:31.788Z,2.23
2022-09-01T06:48:59.026Z,2.57
2022-09-01T06:51:29.235Z,2.33
2022-09-01T06:53:59.826Z,2.20
2022-09-01T06:56:32.024Z,2.40
2022-09-01T06:58:59.964Z,1.80
2022-09-01T07:01:27.594Z,1.80
2022-09-01T07:03:57.176Z,2.00
2022-09-01T07:09:22.260Z,2.17
2022-09-01T07:12:25.373Z,2.73
2022-09-01T07:17:36.562Z,1.93
2022-09-01T07:23:07.149Z,2.20
2022-09-01T07:26:01.054Z,1.97
2022-09-01T07:28:36.058Z,2.37
2022-09-01T07:33:55.681Z,2.40
2022-09-01T07:45:27.699Z,2.13
2022-09-01T07:47:55.176Z,2.00
2022-09-01T07:53:12.489Z,2.33
2022-09-01T07:55:44.178Z,2.70
2022-09-01T07:58:11.862Z,2.53
2022-09-01T08:00:40.254Z,2.43
2022-09-01T08:03:06.981Z,2.23
2022-09-01T08:05:33.852Z,2.20
2022-09-01T08:08:01.120Z,2.03
2022-09-01T08:10:28.571Z,1.93
2022-09-01T08:12:56.992Z,2.07
2022-09-01T08:15:41.680Z,2.20
2022-09-01T08:18:14.337Z,2.40
2022-09-01T08:20:45.525Z,2.40
2022-09-01T08:23:14.856Z,2.07
2022-09-01T08:25:44.677Z,2.07
2022-09-01T08:28:13.863Z,1.90
2022-09-01T08:30:42.322Z,2.07
2022-09-01T08:33:18.662Z,1.87
2022-09-01T08:35:47.941Z,2.20
2022-09-01T08:38:14.933Z,2.00
2022-09-01T08:40:43.481Z,1.90
2022-09-01T08:43:24.979Z,1.87
2022-09-01T08:45:57.894Z,1.87
2022-09-01T08:49:23.735Z,2.10
2022-09-01T08:51:32.557Z,1.57
2022-09-01T08:54:03.110Z,1.60
2022-09-01T08:56:30.715Z,2.00
2022-09-01T09:01:58.527Z,2.07
2022-09-01T09:04:47.403Z,1.90
2022-09-01T09:07:32.597Z,2.27
2022-09-01T09:10:10.603Z,1.80
2022-09-01T09:13:00.575Z,2.20
2022-09-01T09:16:07.325Z,1.63
2022-09-01T09:18:56.911Z,2.30
2022-09-01T09:21:34.242Z,2.20
2022-09-01T09:24:06.166Z,1.67
2022-09-01T09:26:48.314Z,2.10
2022-09-01T09:29:14.853Z,1.90
2022-09-01T09:31:49.913Z,1.60
2022-09-01T09:34:32.459Z,2.23
2022-09-01T09:37:31.344Z,2.10
2022-09-01T09:40:18.219Z,1.77
2022-09-01T09:42:54.018Z,1.93
2022-09-01T09:45:27.552Z,1.80
2022-09-01T09:47:55.919Z,1.90
2022-09-01T09:50:30.569Z,2.03
2022-09-01T09:53:27.925Z,1.90
2022-09-01T09:56:16.348Z,2.13
2022-09-01T09:58:46.521Z,1.63
2022-09-01T10:01:30.704Z,2.03
2022-09-01T10:04:01.589Z,2.00
2022-09-01T10:06:42.001Z,1.93
2022-09-01T10:09:33.101Z,2.27
2022-09-01T10:12:02.024Z,1.77
2022-09-01T10:14:52.014Z,2.00
2022-09-01T10:17:43.569Z,1.90
2022-09-01T10:20:18.626Z,2.00
2022-09-01T10:22:45.141Z,2.57
2022-09-01T10:25:17.959Z,2.10
2022-09-01T10:27:50.077Z,2.10
2022-09-01T10:30:20.113Z,2.47
2022-09-01T10:32:55.950Z,2.33
2022-09-01T10:35:31.457Z,2.43
2022-09-01T10:38:00.036Z,2.53
2022-09-01T10:40:31.031Z,2.43
2022-09-01T10:43:23.443Z,2.30
2022-09-01T10:45:56.046Z,2.70
2022-09-01T10:48:46.283Z,2.40
2022-09-01T10:51:19.293Z,2.23
2022-09-01T10:53:55.220Z,2.37
2022-09-01T10:56:35.442Z,2.30
2022-09-01T11:02:22.641Z,2.50
2022-09-01T11:04:40.937Z,2.93
2022-09-01T11:07:38.878Z,2.70
2022-09-01T11:10:32.710Z,2.63
2022-09-01T11:13:31.648Z,2.53
2022-09-01T11:19:33.078Z,2.63
2022-09-01T11:22:14.012Z,2.43
2022-09-01T11:24:41.175Z,3.00
2022-09-01T11:27:12.139Z,2.87
2022-09-01T11:30:15.920Z,2.87
2022-09-01T11:32:47.037Z,2.57
2022-09-01T11:35:26.656Z,2.80
2022-09-01T11:38:02.064Z,2.80
2022-09-01T11:40:32.495Z,3.10
2022-09-01T11:43:04.461Z,2.60
2022-09-01T11:45:33.732Z,3.10
2022-09-01T11:48:09.432Z,3.10
2022-09-01T11:50:38.424Z,3.00
2022-09-01T11:53:12.051Z,3.00
2022-09-01T11:55:44.533Z,2.90
2022-09-01T11:58:31.721Z,3.10
2022-09-01T12:01:15.713Z,2.80
2022-09-01T12:03:42.978Z,3.80
2022-09-01T12:06:12.687Z,3.50
2022-09-01T12:08:43.232Z,3.50
2022-09-01T12:11:12.838Z,3.50
2022-09-01T12:13:40.972Z,2.90
2022-09-01T12:16:18.902Z,2.97
2022-09-01T12:18:48.696Z,3.30
2022-09-01T12:21:23.942Z,3.33
2022-09-01T12:23:50.666Z,3.23
2022-09-01T12:26:24.893Z,2.90
2022-09-01T12:28:53.008Z,3.23
2022-09-01T12:31:23.664Z,2.60
2022-09-01T12:33:52.088Z,3.10
2022-09-01T12:36:28.839Z,3.10
2022-09-01T12:39:16.534Z,2.80
2022-09-01T12:41:45.309Z,3.33
2022-09-01T12:44:34.536Z,3.20
2022-09-01T12:47:10.499Z,3.43
2022-09-01T12:49:47.937Z,3.40
2022-09-01T12:52:25.786Z,3.30
2022-09-01T12:55:47.382Z,3.37
2022-09-01T12:58:09.050Z,3.30
2022-09-01T13:00:53.629Z,3.20
2022-09-01T13:03:21.491Z,3.30
2022-09-01T13:05:54.158Z,3.37
2022-09-01T13:08:26.908Z,3.33
2022-09-01T13:11:01.121Z,3.67
2022-09-01T13:13:27.908Z,3.17
2022-09-01T13:16:01.374Z,4.20
2022-09-01T13:18:29.070Z,3.77
2022-09-01T13:20:56.950Z,3.93
2022-09-01T13:23:23.614Z,3.70
2022-09-01T13:25:50.372Z,3.60
2022-09-01T13:28:17.437Z,4.00
2022-09-01T13:30:48.489Z,3.47
2022-09-01T13:33:20.095Z,3.80
2022-09-01T13:35:48.339Z,3.77
2022-09-01T13:38:16.572Z,3.43
2022-09-01T13:40:46.294Z,3.70
2022-09-01T13:43:15.187Z,3.57
2022-09-01T13:45:42.013Z,3.30
2022-09-01T13:48:17.229Z,3.67
2022-09-01T13:53:33.384Z,3.53
2022-09-01T13:55:59.876Z,3.70
2022-09-01T13:58:26.308Z,3.97
2022-09-01T14:00:52.767Z,4.00
2022-09-01T14:03:22.925Z,3.80
2022-09-01T14:05:50.452Z,3.67
2022-09-01T14:08:19.643Z,3.37
2022-09-01T14:10:50.666Z,4.03
2022-09-01T14:13:18.578Z,3.67
2022-09-01T14:15:46.821Z,3.90
2022-09-01T14:18:14.920Z,3.47
2022-09-01T14:20:44.588Z,3.60
2022-09-01T14:23:13.179Z,3.70
2022-09-01T14:25:47.049Z,3.77
2022-09-01T14:28:14.628Z,3.93
2022-09-01T14:30:43.364Z,3.87
2022-09-01T14:33:10.758Z,3.40
2022-09-01T14:35:41.532Z,3.80
2022-09-01T14:38:08.761Z,4.10
2022-09-01T14:40:40.007Z,4.10
2022-09-01T14:43:14.204Z,3.33
2022-09-01T14:45:44.419Z,3.20
2022-09-01T14:48:10.785Z,3.70
2022-09-01T14:50:40.849Z,3.27
2022-09-01T14:53:07.654Z,3.43
2022-09-01T14:55:33.995Z,3.30
2022-09-01T14:58:00.770Z,3.80
2022-09-01T15:00:28.394Z,3.70
2022-09-01T15:02:55.082Z,3.90
2022-09-01T15:05:22.150Z,3.57
2022-09-01T15:07:48.861Z,3.70
2022-09-01T15:10:24.459Z,3.70
2022-09-01T15:12:51.776Z,3.77
2022-09-01T15:15:18.604Z,3.50
2022-09-01T15:17:46.517Z,3.60
2022-09-01T15:20:32.106Z,3.60
2022-09-01T15:22:58.630Z,3.63
2022-09-01T15:25:25.590Z,3.60
2022-09-01T15:27:52.124Z,4.20
2022-09-01T15:30:20.230Z,3.80
2022-09-01T15:32:50.094Z,3.30
2022-09-01T15:35:17.241Z,4.00
2022-09-01T15:37:46.567Z,3.63
2022-09-01T15:40:12.989Z,3.87
2022-09-01T15:42:39.599Z,3.53
2022-09-01T15:45:09.373Z,3.60
2022-09-01T15:47:36.001Z,3.40
2022-09-01T15:50:07.536Z,3.70
2022-09-01T15:52:34.681Z,3.43
2022-09-01T15:55:02.442Z,3.87
2022-09-01T15:57:28.812Z,3.23
2022-09-01T15:59:55.261Z,3.37
2022-09-01T16:02:23.744Z,3.67
2022-09-01T16:04:50.139Z,3.63
2022-09-01T16:07:16.689Z,3.50
2022-09-01T16:09:43.097Z,3.20
2022-09-01T16:12:09.681Z,3.00
2022-09-01T16:14:36.057Z,3.20
2022-09-01T16:17:10.856Z,2.90
2022-09-01T16:19:59.809Z,3.30
2022-09-01T16:22:29.890Z,3.40
2022-09-01T16:25:00.731Z,3.40
2022-09-01T16:27:41.883Z,3.97
2022-09-01T16:30:14.142Z,3.50
2022-09-01T16:32:45.123Z,3.60
2022-09-01T16:35:12.896Z,3.40
2022-09-01T16:37:56.889Z,3.10
2022-09-01T16:40:56.294Z,3.20
2022-09-01T16:43:40.425Z,3.40
2022-09-01T16:46:20.779Z,3.10
2022-09-01T16:49:14.917Z,3.53
2022-09-01T16:52:06.617Z,3.37
2022-09-01T16:54:55.008Z,3.23
2022-09-01T16:57:53.363Z,3.57
2022-09-01T17:00:30.840Z,3.27
2022-09-01T17:03:19.670Z,3.70
2022-09-01T17:06:01.736Z,3.37
2022-09-01T17:08:34.232Z,3.13
2022-09-01T17:11:10.308Z,3.23
2022-09-01T17:13:44.784Z,3.23
2022-09-01T17:16:42.077Z,3.53
2022-09-01T17:19:17.853Z,3.10
2022-09-01T17:21:52.873Z,3.30
2022-09-01T17:24:40.372Z,3.50
2022-09-01T17:27:14.231Z,3.30
2022-09-01T17:29:46.927Z,3.10
2022-09-01T17:32:31.998Z,3.57
2022-09-01T17:35:07.564Z,3.60
2022-09-01T17:37:52.974Z,3.17
2022-09-01T17:40:26.506Z,3.07
2022-09-01T17:43:01.029Z,3.63
2022-09-01T17:45:47.631Z,3.40
2022-09-01T17:48:20.705Z,4.00
2022-09-01T17:51:08.550Z,4.00
2022-09-01T17:53:56.237Z,3.70
2022-09-01T17:56:43.805Z,3.33
2022-09-01T17:59:22.389Z,3.30
2022-09-01T18:02:00.279Z,3.40
2022-09-01T18:04:46.602Z,3.80
2022-09-01T18:07:37.815Z,3.60
2022-09-01T18:10:07.680Z,3.20
2022-09-01T18:12:39.173Z,3.60
2022-09-01T18:15:19.866Z,3.37
2022-09-01T18:18:00.109Z,3.43
2022-09-01T18:20:38.884Z,3.40
2022-09-01T18:23:12.501Z,3.40
2022-09-01T18:25:49.468Z,3.17
2022-09-01T18:28:16.662Z,3.83
2022-09-01T18:30:53.253Z,2.73
2022-09-01T18:33:38.237Z,3.33
2022-09-01T18:36:26.713Z,3.50
2022-09-01T18:39:01.965Z,2.80
2022-09-01T18:41:43.498Z,3.30
2022-09-01T18:44:42.275Z,3.10
2022-09-01T18:47:11.931Z,3.20
2022-09-01T18:50:04.631Z,3.67
2022-09-01T18:52:59.560Z,3.43
2022-09-01T18:55:53.964Z,2.90
2022-09-01T18:58:42.218Z,2.67
2022-09-01T19:01:22.087Z,3.10
2022-09-01T19:04:06.975Z,3.37
2022-09-01T19:06:50.694Z,3.20
2022-09-01T19:09:33.692Z,2.83
2022-09-01T19:12:35.836Z,3.23
2022-09-01T19:15:16.821Z,3.00
2022-09-01T19:17:43.402Z,3.20
2022-09-01T19:20:41.961Z,2.80
2022-09-01T19:23:16.828Z,3.70
2022-09-01T19:25:43.607Z,3.40
2022-09-01T19:28:20.041Z,3.50
2022-09-01T19:30:52.571Z,2.90
2022-09-01T19:33:25.070Z,2.87
2022-09-01T19:35:56.306Z,5.03
2022-09-01T19:38:27.721Z,3.47
2022-09-01T19:41:08.327Z,4.13
2022-09-01T19:43:37.165Z,3.60
2022-09-01T19:46:29.508Z,3.70
2022-09-01T19:49:10.207Z,2.93
2022-09-01T19:51:49.007Z,3.07
2022-09-01T19:54:44.558Z,2.73
2022-09-01T19:57:15.776Z,3.40
2022-09-01T20:00:09.227Z,3.33
2022-09-01T20:02:42.982Z,3.13
2022-09-01T20:05:16.839Z,3.17
2022-09-01T20:07:49.389Z,3.57
2022-09-01T20:10:55.316Z,3.20
2022-09-01T20:13:46.017Z,3.17
2022-09-01T20:16:38.402Z,3.10
2022-09-01T20:19:13.689Z,2.93
2022-09-01T20:21:44.597Z,3.00
2022-09-01T20:24:16.774Z,2.93
2022-09-01T20:27:14.642Z,3.23
2022-09-01T20:29:49.733Z,2.90
2022-09-01T20:32:27.433Z,2.90
2022-09-01T20:34:58.651Z,3.23
2022-09-01T20:37:39.604Z,3.00
2022-09-01T20:40:24.464Z,2.87
2022-09-01T20:43:06.505Z,3.13
2022-09-01T20:45:32.965Z,2.67
2022-09-01T20:48:12.853Z,2.83
2022-09-01T20:50:59.896Z,3.03
2022-09-01T20:53:49.325Z,3.00
2022-09-01T20:56:31.632Z,3.00
2022-09-01T20:59:09.650Z,2.77
2022-09-01T21:01:52.166Z,2.90
2022-09-01T21:04:45.769Z,3.00
2022-09-01T21:07:18.097Z,2.80
2022-09-01T21:10:09.470Z,3.07
2022-09-01T21:12:51.508Z,2.80
2022-09-01T21:15:42.693Z,3.00
2022-09-01T21:18:23.824Z,3.00
2022-09-01T21:20:53.069Z,3.20
2022-09-01T21:23:20.695Z,3.07
2022-09-01T21:25:48.214Z,2.37
2022-09-01T21:28:19.514Z,3.10
2022-09-01T21:30:54.255Z,2.70
2022-09-01T21:33:21.987Z,2.93
2022-09-01T21:35:48.570Z,2.70
2022-09-01T21:38:15.066Z,2.50
2022-09-01T21:40:42.293Z,2.80
2022-09-01T21:43:18.448Z,3.70
2022-09-01T21:45:45.839Z,2.47
2022-09-01T21:48:12.745Z,2.83
2022-09-01T21:50:40.499Z,2.80
2022-09-01T21:53:08.704Z,2.40
2022-09-01T21:55:36.633Z,2.90
2022-09-01T21:58:03.529Z,2.80
2022-09-01T22:00:33.192Z,2.40
2022-09-01T22:03:01.620Z,2.50
2022-09-01T22:05:29.597Z,3.20
2022-09-01T22:07:58.394Z,2.40
2022-09-01T22:10:28.045Z,3.07
2022-09-01T22:12:56.137Z,3.10
2022-09-01T22:15:25.494Z,2.80
2022-09-01T22:17:53.346Z,2.80
2022-09-01T22:20:25.450Z,2.50
2022-09-01T22:22:51.933Z,3.23
2022-09-01T22:25:21.155Z,3.00
2022-09-01T22:27:47.665Z,2.40
2022-09-01T22:30:14.222Z,2.47
2022-09-01T22:32:45.194Z,2.63
2022-09-01T22:35:12.870Z,2.33
2022-09-01T22:37:39.679Z,2.40
2022-09-01T22:40:07.157Z,2.30
2022-09-01T22:42:35.100Z,3.03
2022-09-01T22:45:02.019Z,2.43
2022-09-01T22:47:28.402Z,2.20
2022-09-01T22:49:55.093Z,2.77
2022-09-01T22:52:21.642Z,2.47
2022-09-01T22:54:48.954Z,2.40
2022-09-01T22:57:15.323Z,2.60
2022-09-01T22:59:44.736Z,2.60
2022-09-01T23:02:11.563Z,2.63
2022-09-01T23:04:38.884Z,2.30
2022-09-01T23:07:06.365Z,2.47
2022-09-01T23:09:33.154Z,2.50
2022-09-01T23:11:59.554Z,2.50
2022-09-01T23:14:26.405Z,2.50
2022-09-01T23:16:53.000Z,2.43
2022-09-01T23:19:21.222Z,2.60
2022-09-01T23:21:48.239Z,2.33
2022-09-01T23:24:15.357Z,2.63
2022-09-01T23:26:44.768Z,2.30
2022-09-01T23:29:11.780Z,2.30
2022-09-01T23:31:39.396Z,2.57
2022-09-01T23:34:07.984Z,2.90
2022-09-01T23:36:35.009Z,2.40
2022-09-01T23:39:01.950Z,2.30
2022-09-01T23:41:32.881Z,2.33
2022-09-01T23:44:03.325Z,2.40
2022-09-01T23:46:37.162Z,2.60
2022-09-01T23:49:04.289Z,2.47
2022-09-01T23:51:30.799Z,2.40
2022-09-01T23:53:57.409Z,2.43
2022-09-01T23:56:26.630Z,2.73
2022-09-01T23:58:53.655Z,2.30
